Lambert St Louis International Airport
KSTL : now visible

Airfield :











YOU CAN JOIN US ON...

 
LOGIN :

Register | Disclaimer

   EN    FR    IT 

 









Legend :    VFR   Marginal VFR   IFR   Intensive IFR   Very Intensive IFR
Visi :
Ceiling :
>= 8 km
>= 3000ft
5 to 8 km
1000 to 3000 ft
1500m to 5 km
500 to 1000 ft
800 to 1500m
200 to 500 ft
< 800m
< 200 ft
Symbols :   Thunderstorms  Fog  Heavy snow  Heavy precipitations  Wind > 20 kt






- Airport Elevation : 618 ft
- IATA code : STL


KSTL - Lambert St Louis International

CURRENT METAR :
  • 100151Z 22010KT 10SM FEW050 BKN250 32/22 A2981 RMK AO2 SLP077 CB DSNT N MOV E TCU DSNT NW-N T03170222 $

EXPIRED METARs :
  • 100051Z 21012KT 10SM FEW050 BKN250 32/22 A2981 RMK AO2 SLP078 T03220222 $
  • 092351Z 22011G20KT 10SM FEW050 SCT250 34/22 A2980 RMK AO2 SLP074 TCU DSNT S T03390217 10356 20333 56008 $

TAF KSTL
Valid from the 10 at 00:00 until the 11 at 06:00 UTC


092320Z 1000/1106 20012KT P6SM SCT050
FM100500 26009KT P6SM FEW250
FM101100 31011KT P6SM FEW250
KZKC FIR / North America



MET'MAP, your aeronautical weather chart ! - Copyright ORBIFLY December 2007 - Disclaimer

ORBIFLY MET'MAP TEAM :

Programming & Development : Alexandra Zaïnal
Concept & original design : Baudouin d'Aumeries
Assistance for programming : Marc-Olivier Méhu
Technical & hardware support : Manuel Goepfert

Contact : metmap@orbifly.com




SOURCES & CREDITS :

   NOAA       Earth
Advisory